Latest Weather Observations for Hughenden

IDQ60801

Issued at 5:31 pm EST Saturday 1 August 2015 (issued every 30 minutes, with the page automatically refreshed every 10 minutes)

About weather observations | Map of weather stations | Latest weather observations for QLD | Other Formats
Station Details ID: 030022 Name: HUGHENDEN AIRPORT Lat: -20.82 Lon: 144.23 Height: 316.4 m
Data from the previous 72 hours. | See also: Recent months at Hughenden
Date/Time
EST
Temp
°C
App
Temp
°C
Dew
Point
Rel
Hum
%
Delta-T
°C
Wind Press
QNH
hPa
Press
MSL
hPa
Rain
since 9 am
mm
Dir
 
Spd
km/h
Gust
km/h
Spd
kts
Gust
kts
01/05:30pm 27.7 22.9 0.5 17 13.1 ENE 15 20 8 11 1017.1 1016.1 0.0
01/05:00pm 28.3 23.1 0.1 16 13.5 ENE 17 24 9 13 1016.9 1015.9 0.0
01/04:30pm 28.6 23.7 -0.5 15 13.8 NE 15 20 8 11 1016.8 1015.8 0.0
01/04:00pm 28.6 24.5 -0.5 15 13.8 NE 11 19 6 10 1016.8 1015.8 0.0
01/03:30pm 28.8 23.0 -1.3 14 14.1 NE 19 30 10 16 1017.0 1016.0 0.0
01/03:00pm 27.9 22.8 0.6 17 13.2 E 17 26 9 14 1017.3 1016.3 0.0
01/02:30pm 28.3 22.8 1.7 18 13.1 NE 20 30 11 16 1017.6 1016.6 0.0
01/02:00pm 27.5 22.0 1.8 19 12.6 NE 20 30 11 16 1018.0 1017.1 0.0
01/01:30pm 27.1 21.7 2.2 20 12.3 NE 20 32 11 17 1018.7 1017.8 0.0
01/01:00pm 26.7 20.7 3.2 22 11.8 ENE 24 39 13 21 1019.2 1018.3 0.0
01/12:30pm 26.0 19.3 3.9 24 11.2 NE 28 39 15 21 1019.7 1018.8 0.0
01/12:00pm 25.3 19.0 5.5 28 10.2 NE 28 39 15 21 1020.3 1019.3 0.0
01/11:30am 24.9 19.6 6.6 31 9.6 NE 24 32 13 17 1020.6 1019.7 0.0
01/11:00am 23.9 17.8 6.7 33 9.0 NE 28 43 15 23 1020.8 1019.9 0.0
01/10:30am 23.5 18.1 8.0 37 8.3 ENE 26 43 14 23 1021.1 1020.2 0.0
01/10:00am 21.6 15.6 8.5 43 7.0 NE 30 41 16 22 1021.1 1020.2 0.0
01/09:30am 21.5 15.7 9.4 46 6.6 NE 30 41 16 22 1021.1 1020.4 0.0
01/09:00am 20.0 13.9 9.9 52 5.5 ENE 32 43 17 23 1020.7 1020.0 0.0
01/08:30am 18.8 14.8 10.4 58 4.6 NE 22 30 12 16 1020.8 1020.1 0.0
01/08:00am 17.0 14.6 10.1 64 3.7 NE 13 17 7 9 1020.6 1019.9 0.0
01/07:30am 15.6 12.8 9.9 69 3.0 NE 15 17 8 9 1020.4 1019.6 0.0
01/07:00am 14.9 12.0 9.5 70 2.8 NE 15 20 8 11 1020.4 1019.6 0.0
01/06:30am 14.9 11.5 9.1 68 3.0 ENE 17 20 9 11 1019.9 1019.2 0.0
01/06:00am 15.5 11.7 9.0 65 3.4 ENE 19 24 10 13 1019.6 1018.9 0.0
01/05:30am 15.5 11.3 7.5 59 4.0 NE 19 24 10 13 1019.3 1018.6 0.0
01/05:00am 14.9 12.4 6.7 58 4.0 ENE 9 13 5 7 1019.2 1018.5 0.0
01/04:30am 13.5 10.6 2.7 48 4.9 E 7 11 4 6 1019.2 1018.5 0.0
01/04:00am 14.0 9.8 1.6 43 5.5 ESE 13 13 7 7 1019.3 1018.6 0.0
01/03:30am 14.9 10.7 1.8 41 5.8 ESE 13 15 7 8 1019.4 1018.7 0.0
01/03:00am 15.0 11.2 1.5 40 6.0 ESE 11 15 6 8 1019.4 1018.7 0.0
01/02:30am 15.8 12.3 1.2 37 6.5 E 9 13 5 7 1019.4 1018.7 0.0
01/02:00am 16.7 12.8 1.2 35 6.9 E 11 15 6 8 1019.6 1018.9 0.0
01/01:30am 17.9 12.8 1.0 32 7.6 E 17 20 9 11 1019.7 1019.0 0.0
01/01:00am 18.0 13.1 1.9 34 7.4 ESE 17 20 9 11 1019.8 1019.1 0.0
01/12:30am 16.2 12.4 1.5 37 6.6 ESE 11 15 6 8 1019.8 1019.1 0.0
01/12:00am 15.6 11.7 1.3 38 6.3 ESE 11 13 6 7 1019.8 1019.1 0.0
 
Date/Time
EST
Temp
°C
App
Temp
°C
Dew
Point
Rel
Hum
%
Delta-T
°C
Wind Press
QNH
hPa
Press
MSL
hPa
Rain
since 9 am
mm
Dir
 
Spd
km/h
Gust
km/h
Spd
kts
Gust
kts
31/11:30pm 16.4 12.5 1.3 36 6.8 ESE 11 13 6 7 1019.9 1019.2 0.0
31/11:00pm 17.2 13.7 1.2 34 7.2 ESE 9 11 5 6 1020.2 1019.4 0.0
31/10:30pm 18.1 13.4 1.2 32 7.7 ESE 15 17 8 9 1019.9 1019.2 0.0
31/10:00pm 18.7 14.0 1.2 31 7.9 ESE 15 17 8 9 1019.9 1019.2 0.0
31/09:30pm 18.8 14.2 1.3 31 8.0 ESE 15 17 8 9 1019.6 1018.9 0.0
31/09:00pm 19.3 14.4 1.8 31 8.1 ESE 17 20 9 11 1019.5 1018.8 0.0
31/08:30pm 19.1 14.5 1.6 31 8.1 ESE 15 17 8 9 1019.3 1018.6 0.0
31/08:00pm 20.2 15.7 2.1 30 8.5 ESE 15 15 8 8 1019.0 1018.3 0.0
31/07:30pm 21.1 16.6 1.9 28 9.0 SE 15 17 8 9 1018.5 1017.8 0.0
31/07:00pm 22.1 18.0 2.2 27 9.5 SE 13 17 7 9 1018.2 1017.5 0.0
31/06:30pm 23.1 18.6 2.0 25 10.1 ESE 15 19 8 10 1018.0 1017.3 0.0
31/06:00pm 24.6 19.3 2.1 23 10.9 ESE 19 24 10 13 1017.9 1017.2 0.0
31/05:30pm 25.9 20.4 1.9 21 11.7 ESE 20 28 11 15 1017.8 1017.1 0.0
31/05:00pm 26.6 21.4 2.5 21 11.9 ESE 19 26 10 14 1017.6 1016.8 0.0
31/04:30pm 26.8 21.4 2.7 21 12.0 E 20 30 11 16 1017.6 1016.8 0.0
31/04:00pm 26.8 21.7 3.3 22 11.8 ESE 19 30 10 16 1017.6 1016.8 0.0
31/03:30pm 27.2 21.9 3.0 21 12.1 ESE 20 30 11 16 1017.9 1017.2 0.0
31/03:00pm 27.1 21.4 2.9 21 12.1 ESE 22 32 12 17 1018.2 1017.5 0.0
31/02:30pm 27.0 21.5 4.1 23 11.7 ESE 22 35 12 19 1018.6 1017.9 0.0
31/02:00pm 27.2 22.1 4.3 23 11.7 E 20 35 11 19 1018.9 1018.2 0.0
31/01:30pm 26.4 20.9 4.2 24 11.3 ENE 22 33 12 18 1019.4 1018.7 0.0
31/01:00pm 26.1 20.3 4.6 25 11.0 E 24 35 13 19 1019.9 1019.2 0.0
31/12:30pm 25.5 20.2 5.1 27 10.5 E 22 33 12 18 1020.6 1019.9 0.0
31/12:00pm 24.1 19.0 5.9 31 9.4 ENE 22 35 12 19 1021.1 1020.4 0.0
31/11:30am 24.2 18.7 6.0 31 9.4 E 24 35 13 19 1021.5 1020.8 0.0
31/11:00am 23.4 18.0 6.2 33 8.9 ENE 24 33 13 18 1021.9 1021.2 0.0
31/10:30am 22.5 16.5 7.1 37 8.1 ENE 28 37 15 20 1022.3 1021.6 0.0
31/10:00am 21.5 16.1 8.1 42 7.1 ENE 26 35 14 19 1022.6 1021.9 0.0
31/09:30am 20.5 14.8 8.5 46 6.4 ENE 28 37 15 20 1022.7 1022.0 0.0
31/09:00am 19.2 15.2 9.1 52 5.4 ENE 20 28 11 15 1022.6 1021.9 0.0
31/08:30am 18.4 14.8 9.7 57 4.7 ENE 19 26 10 14 1022.6 1021.9 0.0
31/08:00am 15.3 13.6 8.3 63 3.6 SE 7 9 4 5 1022.6 1021.9 0.0
31/07:30am 12.4 10.3 6.5 67 2.9 SE 7 9 4 5 1022.2 1021.5 0.0
31/07:00am 12.1 9.2 6.6 69 2.7 SE 11 13 6 7 1021.7 1021.0 0.0
31/06:30am 14.5 10.9 6.8 60 3.8 ENE 15 20 8 11 1021.4 1020.7 0.0
31/06:00am 12.7 10.1 6.3 65 3.1 E 9 15 5 8 1020.9 1020.2 0.0
31/05:30am 14.5 12.3 7.8 64 3.4 E 9 13 5 7 1020.5 1019.7 0.0
31/05:00am 15.0 11.9 7.1 59 3.9 ENE 13 15 7 8 1020.3 1019.5 0.0
31/04:30am 15.0 11.6 5.8 54 4.5 ENE 13 15 7 8 1020.3 1019.5 0.0
31/04:00am 15.5 12.4 5.7 52 4.8 ENE 11 13 6 7 1020.5 1019.7 0.0
31/03:30am 15.0 12.3 5.5 53 4.6 ENE 9 13 5 7 1020.6 1019.9 0.0
31/03:00am 14.6 10.9 4.3 50 4.8 ESE 13 13 7 7 1020.7 1020.0 0.0
31/02:30am 16.7 13.1 5.0 46 5.7 E 13 17 7 9 1020.7 1020.0 0.0
31/02:00am 14.7 11.8 4.7 51 4.7 SE 9 15 5 8 1020.8 1020.1 0.0
31/01:30am 15.6 12.5 3.7 45 5.6 E 9 13 5 7 1021.1 1020.4 0.0
31/01:00am 15.9 12.4 3.7 44 5.7 ENE 11 15 6 8 1021.4 1020.7 0.0
31/12:30am 15.8 12.7 3.6 44 5.7 ENE 9 11 5 6 1021.4 1020.7 0.0
31/12:00am 16.6 13.9 3.6 42 6.1 ENE 7 7 4 4 1021.6 1020.9 0.0
 
Date/Time
EST
Temp
°C
App
Temp
°C
Dew
Point
Rel
Hum
%
Delta-T
°C
Wind Press
QNH
hPa
Press
MSL
hPa
Rain
since 9 am
mm
Dir
 
Spd
km/h
Gust
km/h
Spd
kts
Gust
kts
30/11:30pm 16.5 13.7 2.9 40 6.3 ESE 7 11 4 6 1021.8 1021.1 0.0
30/11:00pm 17.2 13.1 2.4 37 6.8 ESE 13 17 7 9 1021.8 1021.1 0.0
30/10:30pm 17.8 13.3 2.2 35 7.2 ESE 15 17 8 9 1021.9 1021.2 0.0
30/10:00pm 17.9 13.3 1.4 33 7.5 ESE 15 17 8 9 1021.8 1021.1 0.0
30/09:30pm 18.1 13.8 0.7 31 7.8 ESE 13 17 7 9 1021.8 1021.1 0.0
30/09:00pm 18.4 14.1 1.0 31 7.8 ESE 13 17 7 9 1021.5 1020.8 0.0
30/08:30pm 18.6 14.1 -0.2 28 8.3 ESE 13 15 7 8 1021.2 1020.5 0.0
30/08:00pm 19.2 14.7 -0.2 27 8.6 SE 13 15 7 8 1021.0 1020.3 0.0
30/07:30pm 19.5 15.0 -0.5 26 8.9 ESE 13 13 7 7 1020.6 1019.9 0.0
30/07:00pm 21.2 16.8 0.4 25 9.5 SE 13 15 7 8 1020.3 1019.5 0.0
30/06:30pm 22.0 17.5 -0.1 23 10.1 SE 13 15 7 8 1019.9 1019.2 0.0
30/06:00pm 23.5 19.0 -0.1 21 10.9 ESE 13 19 7 10 1019.7 1019.0 0.0
30/05:30pm 25.1 19.9 -0.1 19 11.8 E 17 20 9 11 1019.5 1018.8 0.0
30/05:00pm 25.9 20.7 -0.2 18 12.2 ESE 17 22 9 12 1019.4 1018.7 0.0
30/04:30pm 26.5 20.6 -0.5 17 12.6 ESE 20 28 11 15 1019.3 1018.6 0.0
30/04:00pm 26.3 20.5 -1.5 16 12.7 E 19 26 10 14 1019.3 1018.6 0.0
30/03:30pm 25.9 20.3 -0.2 18 12.2 E 19 24 10 13 1019.5 1018.8 0.0
30/03:00pm 26.4 21.6 0.2 18 12.4 ESE 15 28 8 15 1019.7 1019.0 0.0
30/02:30pm 26.3 21.1 0.1 18 12.4 ESE 17 28 9 15 1020.3 1019.5 0.0
30/02:00pm 25.7 20.1 1.1 20 11.8 E 20 32 11 17 1020.6 1019.9 0.0
30/01:30pm 24.8 19.7 1.0 21 11.3 E 17 30 9 16 1021.1 1020.4 0.0
30/01:00pm 25.1 19.4 0.6 20 11.6 E 20 30 11 16 1021.4 1020.7 0.0
30/12:30pm 24.1 19.4 3.4 26 10.2 ENE 17 28 9 15 1021.9 1021.2 0.0
30/12:00pm 24.1 19.1 3.4 26 10.2 ENE 19 32 10 17 1022.6 1021.9 0.0
30/11:30am 23.2 18.2 4.7 30 9.3 ENE 20 30 11 16 1022.9 1022.2 0.0
30/11:00am 22.1 16.4 5.1 33 8.5 ENE 24 32 13 17 1023.6 1022.9 0.0
30/10:30am 21.4 15.9 5.7 36 8.0 ENE 24 35 13 19 1023.9 1023.2 0.0
30/10:00am 20.4 15.7 6.0 39 7.3 ENE 20 30 11 16 1024.2 1023.5 0.0
30/09:30am 19.3 13.8 6.1 42 6.7 ENE 24 37 13 20 1024.4 1023.7 0.0
30/09:00am 18.5 12.7 6.4 45 6.1 ENE 26 33 14 18 1024.2 1023.5 0.0
30/08:30am 17.5 13.1 6.4 48 5.6 ENE 19 24 10 13 1024.0 1023.3 0.0
30/08:00am 16.5 13.6 6.6 52 4.9 ENE 11 15 6 8 1023.8 1023.1 0.0
30/07:30am 15.5 11.9 6.8 56 4.3 E 15 19 8 10 1023.6 1022.9 0.0
30/07:00am 14.7 11.2 7.0 60 3.8 ENE 15 19 8 10 1023.2 1022.6 0.0
30/06:30am 14.6 10.7 6.9 60 3.8 E 17 20 9 11 1022.9 1022.2 0.0
30/06:00am 14.7 10.7 6.5 58 4.0 E 17 20 9 11 1022.7 1022.0 0.0
30/05:30am 15.2 11.6 6.7 57 4.2 E 15 22 8 12 1022.5 1021.8 0.0
30/05:00am 15.0 12.3 5.8 54 4.5 E 9 13 5 7 1022.4 1021.7 0.0
30/04:30am 15.3 11.6 4.7 49 5.0 ESE 13 17 7 9 1022.2 1021.5 0.0
30/04:00am 15.8 10.7 3.3 43 5.8 E 19 24 10 13 1022.1 1021.4 0.0
30/03:30am 16.1 10.9 2.5 40 6.2 E 19 24 10 13 1022.1 1021.4 0.0
30/03:00am 16.2 11.3 1.9 38 6.4 ENE 17 22 9 12 1022.4 1021.7 0.0
30/02:30am 16.7 11.2 2.0 37 6.7 E 20 30 11 16 1022.3 1021.6 0.0
30/02:00am 17.1 11.6 1.9 36 6.9 E 20 24 11 13 1022.7 1022.0 0.0
30/01:30am 17.9 12.5 1.4 33 7.5 E 19 24 10 13 1022.8 1022.1 0.0
30/01:00am 17.8 12.9 1.7 34 7.3 ESE 17 22 9 12 1023.0 1022.3 0.0
30/12:30am 18.4 13.5 2.3 34 7.5 ESE 17 24 9 13 1023.1 1022.4 0.0
30/12:00am 18.8 13.6 2.6 34 7.6 ESE 19 28 10 15 1023.4 1022.7 0.0
 
Date/Time
EST
Temp
°C
App
Temp
°C
Dew
Point
Rel
Hum
%
Delta-T
°C
Wind Press
QNH
hPa
Press
MSL
hPa
Rain
since 9 am
mm
Dir
 
Spd
km/h
Gust
km/h
Spd
kts
Gust
kts
29/11:30pm 18.1 14.7 3.9 39 6.8 ESE 11 15 6 8 1023.5 1022.8 0.0
29/11:00pm 18.5 14.0 4.3 39 6.8 ESE 17 20 9 11 1023.5 1022.8 0.0
29/10:30pm 17.8 14.0 4.0 40 6.6 SE 13 15 7 8 1023.7 1023.0 0.0
29/10:00pm 18.8 16.1 3.8 37 7.2 SE 7 9 4 5 1023.6 1022.9 0.0
29/09:30pm 19.1 16.0 3.7 36 7.4 ESE 9 13 5 7 1023.5 1022.8 0.0
29/09:00pm 19.6 14.9 2.9 33 7.9 ESE 17 19 9 10 1023.5 1022.8 0.0
29/08:30pm 20.2 15.9 3.0 32 8.2 ESE 15 19 8 10 1023.2 1022.6 0.0
29/08:00pm 20.0 16.0 2.8 32 8.1 SE 13 17 7 9 1022.9 1022.2 0.0
29/07:30pm 20.6 16.2 2.9 31 8.5 ESE 15 19 8 10 1022.6 1021.9 0.0
29/07:00pm 22.1 17.4 3.3 29 9.1 ESE 17 20 9 11 1022.1 1021.4 0.0
29/06:30pm 22.7 17.6 3.3 28 9.5 ESE 19 22 10 12 1021.7 1021.0 0.0
29/06:00pm 23.7 18.8 4.1 28 9.8 ESE 19 24 10 13 1021.6 1020.9 0.0

Other Formats:

Comma delimited format used in spreadsheet applications
http://www.bom.gov.au/fwo/IDQ60801/IDQ60801.94343.axf

JavaScript Object Notation format (JSON) in row-major order
http://www.bom.gov.au/fwo/IDQ60801/IDQ60801.94343.json